< Typhoon 196522 1965 Season Typhoon 196524 >
Typhoon 196523 (SHIRLEY)
General InformationTrack Information on Google Maps || NewsDisaster Info.ResourceGoogle EarthGE AnimationAtom FeedGeoJSON
Detalied Best Track (Time Zone = UTC)
Year Month Day Hour Lat. Long. Pressure (hPa) Wind (kt) Class Image Chart
1965 8 31 18 8.6 145.4 1006 0 2 -- Chart
1965 9 1 00 8.9 145.6 1006 0 2 -- Chart
1965 9 1 06 9.5 145.2 1004 0 2 -- Chart
1965 9 1 12 9.8 144.8 1006 0 2 -- Chart
1965 9 1 18 10.1 144.2 1006 0 2 -- Chart
1965 9 2 00 10.5 143.7 1006 0 2 -- Chart
1965 9 2 06 10.8 143.0 1006 0 2 -- Chart
1965 9 2 12 11.1 142.3 1006 0 2 -- Chart
1965 9 2 18 11.5 141.6 1006 0 2 -- Chart
1965 9 3 00 12.0 141.0 1006 0 2 -- Chart
1965 9 3 06 12.8 140.8 1006 0 2 -- Chart
1965 9 3 12 13.5 140.8 1006 0 2 -- Chart
1965 9 3 18 14.2 140.8 1004 0 2 -- Chart
1965 9 4 00 15.0 141.0 1006 0 2 -- Chart
1965 9 4 06 15.8 141.2 1004 0 2 -- Chart
1965 9 4 12 16.5 141.6 1004 0 2 -- Chart
1965 9 4 18 17.2 141.8 1004 0 2 -- Chart
1965 9 5 00 18.0 142.0 1004 0 2 -- Chart
1965 9 5 06 18.9 142.0 1004 0 2 -- Chart
1965 9 5 12 19.7 141.9 1004 0 2 -- Chart
1965 9 5 18 20.6 141.7 996 0 9 -- Chart
1965 9 6 00 21.0 141.2 990 0 9 -- Chart
1965 9 6 06 21.3 140.8 985 0 9 -- Chart
1965 9 6 12 21.6 139.7 985 0 9 -- Chart
1965 9 6 18 22.0 138.8 980 0 9 -- Chart
1965 9 7 00 22.2 137.5 970 0 9 -- Chart
1965 9 7 06 22.5 136.1 965 0 9 -- Chart
1965 9 7 12 23.1 135.2 960 0 9 -- Chart
1965 9 7 18 23.6 134.5 960 0 9 -- Chart
1965 9 8 00 24.0 133.7 955 0 9 -- Chart
1965 9 8 06 24.6 133.2 950 0 9 -- Chart
1965 9 8 12 25.2 132.8 950 0 9 -- Chart
1965 9 8 18 25.9 132.0 950 0 9 -- Chart
1965 9 9 00 26.6 131.7 940 0 9 -- Chart
1965 9 9 06 27.8 131.5 940 0 9 -- Chart
1965 9 9 12 29.3 131.8 940 0 9 -- Chart
1965 9 9 18 31.5 132.6 940 0 9 -- Chart
1965 9 10 00 33.8 134.2 950 0 9 -- Chart
1965 9 10 06 37.1 136.3 965 0 9 -- Chart
1965 9 10 12 40.8 139.0 970 0 9 -- Chart
1965 9 10 18 43.6 141.5 974 0 9 -- Chart
1965 9 11 00 46.5 144.4 976 0 6 -- Chart
1965 9 11 06 48.4 147.8 976 0 6 -- Chart
1965 9 11 12 50.0 150.6 978 0 6 -- Chart
1965 9 11 18 51.3 153.0 980 0 6 -- Chart
1965 9 12 00 52.1 155.3 980 0 6 -- Chart
1965 9 12 06 52.2 159.1 984 0 6 -- Chart
1965 9 12 12 52.1 165.0 984 0 6 -- Chart
1965 9 12 18 52.0 169.5 982 0 6 -- Chart
1965 9 13 00 51.8 175.2 986 0 6 -- Chart
1965 9 13 06 51.5 179.9 988 0 6 -- Chart
1965 9 13 12 51.5 185.0 988 0 6 -- Chart
Japan Meteorological Agency Best Track Data | Correction Date : 1991-07-16
< Typhoon 196522 1965 Season Typhoon 196524 >

Help